Time;durP1;ratioP1;P1;durP2;ratioP2;P2;SDS_P1;SDS_P2;PMS_P1;PMS_P2;Temp;Humidity;BMP_temperature;BMP_pressure;BME280_temperature;BME280_humidity;BME280_pressure;Samples;Min_cycle;Max_cycle;Signal;HPM_P1;HPM_P2
2022/04/07 00:01:18;;;;;;;6.72;5.15;;;;;;;8.26;90.82;99105.94;4979514;28;20049;-83
2022/04/07 00:03:43;;;;;;;6.20;5.40;;;;;;;8.28;91.47;99114.34;4982707;28;20057;-80
2022/04/07 00:06:09;;;;;;;6.68;5.15;;;;;;;8.29;90.79;99100.44;4989059;28;20369;-80
2022/04/07 00:08:38;;;;;;;6.25;5.63;;;;;;;8.24;91.84;99102.66;5006767;28;20494;-81
2022/04/07 00:11:04;;;;;;;;;;;;;;;8.31;91.00;99098.50;4984474;28;20053;-81
2022/04/07 00:13:29;;;;;;;7.47;5.85;;;;;;;8.20;90.95;99091.84;5007281;28;19961;-80
2022/04/07 00:15:56;;;;;;;8.98;5.88;;;;;;;8.22;91.34;99087.34;4989256;28;20028;-81
2022/04/07 00:18:22;;;;;;;6.70;5.57;;;;;;;8.21;91.22;99090.09;4988257;28;20041;-82
2022/04/07 00:20:47;;;;;;;7.70;5.70;;;;;;;8.19;91.37;99079.88;4988208;28;20030;-81
2022/04/07 00:23:13;;;;;;;7.60;5.38;;;;;;;8.13;91.07;99074.53;5001080;28;20396;-81
2022/04/07 00:25:38;;;;;;;8.02;4.90;;;;;;;8.19;91.40;99066.16;4993896;28;20038;-79
2022/04/07 00:28:03;;;;;;;6.57;4.80;;;;;;;8.14;91.00;99061.47;4969767;28;20041;-81
2022/04/07 00:30:30;;;;;;;8.65;4.72;;;;;;;8.16;90.70;99058.75;4970821;28;20427;-80
2022/04/07 00:32:55;;;;;;;9.38;4.68;;;;;;;8.17;90.22;99050.03;4988859;28;20129;-81
2022/04/07 00:35:22;;;;;;;10.23;4.50;;;;;;;8.15;90.13;99026.94;4987880;28;20461;-82
2022/04/07 00:37:48;;;;;;;7.53;4.38;;;;;;;8.13;90.21;99033.22;5002344;28;20033;-81
2022/04/07 00:40:13;;;;;;;8.38;4.10;;;;;;;8.13;89.89;99033.22;4972067;28;20121;-80
2022/04/07 00:42:50;;;;;;;7.38;3.58;;;;;;;8.18;89.58;99028.41;4987583;28;20317;-79
2022/04/07 00:45:17;;;;;;;8.65;3.67;;;;;;;8.15;89.73;99032.09;4987145;28;20035;-81
2022/04/07 00:47:43;;;;;;;8.35;3.40;;;;;;;8.16;89.96;99032.91;4973111;28;20030;-81
2022/04/07 00:50:13;;;;;;;6.57;3.13;;;;;;;8.15;90.04;99036.47;5007546;28;20105;-81
2022/04/07 00:52:43;;;;;;;11.93;3.53;;;;;;;8.14;90.72;99029.66;5007396;28;20255;-82
2022/04/07 00:55:10;;;;;;;8.57;3.17;;;;;;;8.04;91.13;99024.63;4996561;28;20033;-83
2022/04/07 00:57:38;;;;;;;8.63;3.30;;;;;;;8.04;91.32;99023.81;4987504;28;20030;-83
2022/04/07 01:00:05;;;;;;;9.80;3.30;;;;;;;8.01;91.91;99024.09;4974556;28;20049;-82
2022/04/07 01:02:31;;;;;;;9.77;3.15;;;;;;;7.90;92.54;99007.09;5007067;28;20327;-82
2022/04/07 01:04:57;;;;;;;10.93;3.10;;;;;;;7.91;92.46;99019.88;4989772;28;20526;-80
2022/04/07 01:07:24;;;;;;;8.60;3.05;;;;;;;7.76;93.07;99011.06;4990111;28;20133;-84
2022/04/07 01:09:50;;;;;;;7.43;2.80;;;;;;;7.74;93.73;99005.22;5007031;28;20026;-84
2022/04/07 01:12:15;;;;;;;12.10;3.25;;;;;;;7.76;93.85;99013.66;5006863;28;20037;-78
2022/04/07 01:15:01;;;;;;;10.25;3.20;;;;;;;7.82;93.87;99020.78;5007082;28;20056;-85
2022/04/07 01:17:28;;;;;;;8.18;3.35;;;;;;;7.70;94.29;99019.41;4990296;28;20191;-84
2022/04/07 01:19:54;;;;;;;10.77;3.40;;;;;;;7.68;94.70;99005.84;4991882;28;20045;-83
2022/04/07 01:22:21;;;;;;;8.80;3.20;;;;;;;7.69;94.52;98994.56;4998384;28;20042;-81
2022/04/07 01:24:47;;;;;;;7.75;3.30;;;;;;;7.67;94.49;98991.31;4988629;28;20022;-83
2022/04/07 01:27:14;;;;;;;11.93;3.75;;;;;;;7.58;94.73;98971.59;5001977;28;20046;-84
2022/04/07 01:29:40;;;;;;;10.23;3.10;;;;;;;7.56;95.47;98952.88;4990209;28;20125;-82
2022/04/07 01:32:10;;;;;;;11.32;3.80;;;;;;;7.61;95.13;98960.97;4987339;28;20113;-84
2022/04/07 01:34:36;;;;;;;10.60;4.22;;;;;;;7.63;95.31;98969.38;4987593;28;20026;-84
2022/04/07 01:37:02;;;;;;;9.77;4.05;;;;;;;7.61;94.82;98961.78;5004069;28;20112;-86
2022/04/07 01:39:28;;;;;;;10.00;4.10;;;;;;;7.62;95.23;98960.00;5003518;28;20367;-84
2022/04/07 01:41:55;;;;;;;10.77;3.78;;;;;;;7.55;94.86;98940.94;5000153;28;20479;-83
2022/04/07 01:44:21;;;;;;;9.85;3.65;;;;;;;7.60;95.20;98949.03;5010639;28;20025;-85
2022/04/07 01:46:48;;;;;;;9.07;3.80;;;;;;;7.57;94.89;98933.84;5009852;28;20521;-83
2022/04/07 01:49:15;;;;;;;9.43;3.83;;;;;;;7.54;95.02;98922.06;4996161;28;20076;-85
2022/04/07 01:51:42;;;;;;;10.52;3.92;;;;;;;7.60;95.28;98928.38;4990554;28;20082;-84
2022/04/07 01:54:11;;;;;;;10.20;4.05;;;;;;;7.58;94.72;98920.00;5006267;28;20541;-80
2022/04/07 01:56:39;;;;;;;10.13;4.70;;;;;;;7.57;95.36;98919.19;4991020;28;20463;-85
2022/04/07 01:59:07;;;;;;;11.75;4.78;;;;;;;7.63;94.92;98925.50;4997596;28;20482;-84
2022/04/07 02:01:32;;;;;;;9.93;4.67;;;;;;;7.57;95.24;98910.63;5009712;28;20470;-80
2022/04/07 02:03:58;;;;;;;10.57;4.30;;;;;;;7.61;95.78;98917.09;5010349;28;20029;-81
2022/04/07 02:06:25;;;;;;;10.73;4.07;;;;;;;7.56;95.51;98901.28;5010053;28;20083;-82
2022/04/07 02:08:50;;;;;;;13.13;4.90;;;;;;;7.55;95.57;98905.63;5010400;28;20245;-84
2022/04/07 02:11:16;;;;;;;9.63;4.40;;;;;;;7.57;95.82;98908.03;5010013;28;20525;-82
2022/04/07 02:13:42;;;;;;;11.38;5.05;;;;;;;7.56;95.58;98903.84;5009507;28;20121;-85
2022/04/07 02:16:08;;;;;;;10.85;4.50;;;;;;;7.51;95.83;98882.84;5009768;28;20037;-85
2022/04/07 02:18:34;;;;;;;9.38;4.28;;;;;;;7.54;96.04;98887.72;5000518;28;20026;-85
2022/04/07 02:21:00;;;;;;;11.32;4.93;;;;;;;7.50;96.00;98860.63;4990270;28;20378;-84
2022/04/07 02:23:28;;;;;;;11.00;4.80;;;;;;;7.51;95.92;98857.06;5006622;28;20037;-84
2022/04/07 02:25:53;;;;;;;13.77;5.03;;;;;;;7.50;96.41;98850.28;5010063;28;20378;-84
2022/04/07 02:28:19;;;;;;;13.13;4.53;;;;;;;7.53;96.51;98855.97;5010094;28;20797;-84
2022/04/07 02:30:45;;;;;;;9.93;4.63;;;;;;;7.52;96.20;98835.50;4991381;28;20027;-85
2022/04/07 02:33:12;;;;;;;12.40;4.47;;;;;;;7.53;95.71;98831.94;5003661;28;20022;-83
2022/04/07 02:35:37;;;;;;;13.25;4.20;;;;;;;7.53;95.43;98834.53;4992167;28;20021;-85
2022/04/07 02:38:03;;;;;;;10.85;4.18;;;;;;;7.62;94.98;98843.91;4998532;28;20080;-84
2022/04/07 02:40:28;;;;;;;15.43;4.97;;;;;;;7.64;94.42;98842.00;4990443;28;20030;-84
2022/04/07 02:42:53;;;;;;;13.73;4.57;;;;;;;7.64;94.64;98842.00;4990032;28;20352;-82
2022/04/07 02:45:19;;;;;;;14.25;4.82;;;;;;;7.64;93.65;98826.50;4972408;28;20121;-83
2022/04/07 02:47:44;;;;;;;14.35;5.05;;;;;;;7.69;93.89;98826.84;4991673;28;20030;-85
2022/04/07 02:50:09;;;;;;;14.13;4.80;;;;;;;7.69;94.11;98808.78;5007910;28;20045;-84
2022/04/07 02:52:35;;;;;;;15.02;4.85;;;;;;;7.71;93.72;98809.44;4984181;28;20052;-83
2022/04/07 02:55:02;;;;;;;15.55;4.40;;;;;;;7.68;93.72;98802.00;5009444;28;20033;-85
2022/04/07 02:57:31;;;;;;;13.20;4.50;;;;;;;7.65;93.65;98802.31;4985083;28;20093;-85
2022/04/07 03:00:00;;;;;;;13.00;4.63;;;;;;;7.69;93.28;98793.31;4996078;28;20513;-84
2022/04/07 03:02:26;;;;;;;15.27;4.70;;;;;;;7.68;93.45;98791.66;5006352;28;20026;-84
2022/04/07 03:04:52;;;;;;;15.15;4.30;;;;;;;7.65;92.51;98776.53;4989310;28;20030;-83
2022/04/07 03:07:17;;;;;;;14.82;4.13;;;;;;;7.69;92.60;98778.63;4989678;28;20463;-82
2022/04/07 03:09:43;;;;;;;14.93;4.10;;;;;;;7.71;92.19;98775.91;4989869;28;20030;-82
2022/04/07 03:12:09;;;;;;;11.27;3.65;;;;;;;7.70;92.40;98766.53;4990792;28;20025;-82
2022/04/07 03:14:35;;;;;;;12.73;3.60;;;;;;;7.68;91.79;98751.22;4989650;28;20304;-80
2022/04/07 03:17:00;;;;;;;12.85;4.25;;;;;;;7.70;91.72;98753.63;4989777;28;20866;-82
2022/04/07 03:19:25;;;;;;;12.32;3.78;;;;;;;7.73;91.33;98753.31;4989187;28;20028;-85
2022/04/07 03:21:51;;;;;;;16.92;4.25;;;;;;;7.72;91.30;98752.50;4998143;28;20033;-83
2022/04/07 03:24:16;;;;;;;17.10;3.95;;;;;;;7.73;92.07;98748.16;5008482;28;20493;-82
2022/04/07 03:26:41;;;;;;;11.38;3.80;;;;;;;7.77;91.82;98749.47;5008363;28;20108;-82
2022/04/07 03:29:07;;;;;;;12.10;3.65;;;;;;;7.78;92.04;98730.41;5005569;28;20474;-83
2022/04/07 03:31:33;;;;;;;12.90;3.85;;;;;;;7.78;91.52;98740.75;4994073;28;20441;-81
2022/04/07 03:33:58;;;;;;;11.32;4.00;;;;;;;7.79;91.47;98732.03;4990867;28;20034;-83
2022/04/07 03:36:24;;;;;;;10.15;3.85;;;;;;;7.76;92.23;98722.03;4998609;28;20034;-82
2022/04/07 03:38:51;;;;;;;12.65;3.88;;;;;;;7.78;92.14;98720.09;4977904;28;20031;-83
2022/04/07 03:41:17;;;;;;;11.68;4.32;;;;;;;7.64;92.46;98687.19;4989298;28;20034;-81
2022/04/07 03:43:43;;;;;;;15.48;4.50;;;;;;;7.74;92.14;98698.16;4988499;28;20066;-79
2022/04/07 03:46:09;;;;;;;12.43;4.20;;;;;;;7.73;91.86;98691.38;4987712;28;20084;-82
2022/04/07 03:48:35;;;;;;;15.85;4.03;;;;;;;7.73;91.43;98675.91;4988070;28;20027;-83
2022/04/07 03:51:00;;;;;;;14.00;3.70;;;;;;;7.80;91.54;98679.47;4988651;28;20110;-81
2022/04/07 03:53:26;;;;;;;13.25;3.72;;;;;;;7.78;91.50;98671.06;4998125;28;20153;-79
2022/04/07 03:55:51;;;;;;;12.30;3.45;;;;;;;7.78;90.77;98663.31;4990408;28;20492;-83
2022/04/07 03:58:16;;;;;;;12.52;4.25;;;;;;;7.80;90.94;98656.25;4993001;28;20486;-82
2022/04/07 04:00:42;;;;;;;11.90;3.55;;;;;;;7.82;90.86;98669.78;4990486;28;20026;-84
2022/04/07 04:03:07;;;;;;;10.13;3.47;;;;;;;7.85;90.86;98659.13;5007131;28;20026;-83
2022/04/07 04:05:33;;;;;;;12.02;3.25;;;;;;;7.87;90.41;98652.06;4969625;28;20030;-85
2022/04/07 04:07:59;;;;;;;11.65;3.40;;;;;;;7.84;90.20;98636.88;4970522;28;20522;-84
2022/04/07 04:10:25;;;;;;;13.02;3.45;;;;;;;7.90;89.71;98648.34;4988246;28;20529;-85
2022/04/07 04:12:50;;;;;;;13.30;3.40;;;;;;;7.91;89.78;98627.53;4988059;28;20031;-82
2022/04/07 04:15:16;;;;;;;14.10;3.38;;;;;;;7.89;89.42;98603.66;4989209;28;20030;-83
2022/04/07 04:17:41;;;;;;;12.10;3.30;;;;;;;7.88;89.75;98580.59;5003851;28;20504;-80
2022/04/07 04:20:07;;;;;;;14.63;3.42;;;;;;;7.91;89.70;98586.25;4986901;28;20044;-82
2022/04/07 04:22:33;;;;;;;10.32;3.40;;;;;;;7.87;88.80;98559.16;4975604;28;20443;-82
2022/04/07 04:24:58;;;;;;;9.25;3.38;;;;;;;7.93;88.83;98542.19;5006513;28;20026;-83
2022/04/07 04:27:24;;;;;;;10.02;3.13;;;;;;;7.83;88.53;98547.53;5007031;28;20037;-83
2022/04/07 04:29:49;;;;;;;7.13;2.88;;;;;;;7.90;89.05;98558.00;4989524;28;20360;-84
2022/04/07 04:32:14;;;;;;;10.07;3.17;;;;;;;7.94;87.73;98548.97;4986925;28;20028;-82
2022/04/07 04:34:40;;;;;;;10.75;3.30;;;;;;;7.92;88.46;98545.75;4987103;28;20022;-84
2022/04/07 04:37:05;;;;;;;12.15;3.30;;;;;;;7.91;88.34;98526.88;4986971;28;20138;-81
2022/04/07 04:39:30;;;;;;;11.07;3.10;;;;;;;7.92;87.89;98515.59;4986690;28;20061;-81
2022/04/07 04:41:56;;;;;;;10.63;3.35;;;;;;;7.94;87.66;98508.47;4988339;28;20065;-81
2022/04/07 04:44:21;;;;;;;11.32;3.08;;;;;;;7.94;87.76;98503.31;4967768;28;20478;-82
2022/04/07 04:46:46;;;;;;;10.77;3.40;;;;;;;7.93;87.77;98499.13;5000338;28;20482;-79
2022/04/07 04:49:12;;;;;;;9.18;3.00;;;;;;;7.96;87.65;98491.03;4989063;28;20067;-80
2022/04/07 04:51:37;;;;;;;9.52;3.30;;;;;;;8.01;86.79;98482.00;5006424;28;20026;-84
2022/04/07 04:54:03;;;;;;;8.90;2.72;;;;;;;8.05;86.82;98478.13;5005662;28;20389;-79
2022/04/07 04:56:28;;;;;;;9.73;2.78;;;;;;;8.03;86.38;98469.72;4989219;28;20045;-82
2022/04/07 04:58:54;;;;;;;10.93;2.78;;;;;;;8.07;86.72;98466.66;4991858;28;20065;-83
2022/04/07 05:01:20;;;;;;;8.77;2.63;;;;;;;8.04;86.43;98455.88;5003950;28;20060;-82
2022/04/07 05:03:45;;;;;;;6.28;2.47;;;;;;;8.12;85.55;98440.34;4996937;28;20034;-83
2022/04/07 05:06:11;;;;;;;9.00;2.60;;;;;;;8.07;86.35;98437.44;4999948;28;20030;-80
2022/04/07 05:08:36;;;;;;;7.00;2.58;;;;;;;8.07;85.84;98434.88;4990714;28;20394;-82
2022/04/07 05:11:02;;;;;;;9.80;2.60;;;;;;;8.04;86.46;98420.53;4973791;28;20042;-81
2022/04/07 05:13:27;;;;;;;6.57;2.30;;;;;;;8.13;86.72;98436.78;4990298;28;20031;-81
2022/04/07 05:15:52;;;;;;;5.32;2.33;;;;;;;8.12;86.97;98437.75;5003529;28;20041;-84
2022/04/07 05:18:18;;;;;;;6.03;2.50;;;;;;;8.06;87.14;98428.09;4991539;28;20057;-83
2022/04/07 05:20:43;;;;;;;8.25;2.63;;;;;;;8.08;87.56;98420.97;5009618;28;20025;-82
2022/04/07 05:23:08;;;;;;;8.00;2.70;;;;;;;8.03;87.98;98405.19;4994615;28;20265;-82
2022/04/07 05:25:34;;;;;;;6.90;2.50;;;;;;;8.08;87.93;98410.66;4991207;28;20069;-82
2022/04/07 05:27:59;;;;;;;6.13;2.33;;;;;;;8.02;87.99;98395.84;5001984;28;20049;-82
2022/04/07 05:30:24;;;;;;;6.28;2.15;;;;;;;8.01;87.72;98383.91;5009308;28;20084;-79
2022/04/07 05:32:50;;;;;;;7.60;2.30;;;;;;;8.01;88.17;98389.88;5010790;28;20022;-82
2022/04/07 05:35:18;;;;;;;7.00;2.30;;;;;;;8.03;88.15;98356.13;4994389;28;20045;-78
2022/04/07 05:37:43;;;;;;;5.13;1.92;;;;;;;8.07;88.56;98388.41;4992904;28;20018;-82
2022/04/07 05:40:10;;;;;;;5.63;2.00;;;;;;;8.04;88.62;98368.09;4990290;28;20040;-82
2022/04/07 05:42:36;;;;;;;4.75;2.10;;;;;;;7.98;88.59;98370.38;4992284;28;20031;-82
2022/04/07 05:45:01;;;;;;;5.85;2.00;;;;;;;8.04;89.08;98363.75;4990773;28;20030;-81
2022/04/07 05:47:27;;;;;;;6.68;2.10;;;;;;;8.06;89.03;98355.81;4972065;28;20050;-81
2022/04/07 05:49:56;;;;;;;3.65;1.90;;;;;;;8.01;89.35;98342.59;4973700;28;20252;-83
2022/04/07 05:52:22;;;;;;;3.60;1.85;;;;;;;7.94;89.84;98335.53;4989311;28;20474;-80
2022/04/07 05:54:47;;;;;;;4.72;1.90;;;;;;;7.97;89.52;98345.53;4989457;28;20389;-79
2022/04/07 05:57:13;;;;;;;5.25;2.03;;;;;;;7.96;90.65;98336.16;4990504;28;20081;-81
2022/04/07 05:59:38;;;;;;;6.13;2.38;;;;;;;7.96;90.59;98336.16;4990332;28;20030;-82
2022/04/07 06:02:04;;;;;;;5.82;2.10;;;;;;;7.93;90.98;98325.41;4972548;28;20375;-82
2022/04/07 06:04:29;;;;;;;5.57;2.20;;;;;;;7.91;91.67;98317.84;4973338;28;20116;-82
2022/04/07 06:06:55;;;;;;;5.30;2.08;;;;;;;7.86;91.70;98304.63;4973361;28;20042;-82
2022/04/07 06:09:20;;;;;;;6.85;2.30;;;;;;;7.83;91.87;98310.13;4996320;28;20064;-82
2022/04/07 06:11:45;;;;;;;4.22;2.20;;;;;;;7.85;91.74;98303.00;4991972;28;20030;-81
2022/04/07 06:14:11;;;;;;;4.90;2.30;;;;;;;7.85;92.08;98304.78;5008185;28;20022;-82
2022/04/07 06:16:36;;;;;;;6.30;2.22;;;;;;;7.82;92.41;98311.09;5009789;28;20034;-82
2022/04/07 06:19:02;;;;;;;5.70;2.40;;;;;;;7.80;92.86;98305.31;4995177;28;20097;-82
2022/04/07 06:21:30;;;;;;;7.10;3.25;;;;;;;7.79;92.63;98298.53;4993054;28;20026;-85
2022/04/07 06:23:57;;;;;;;5.70;3.17;;;;;;;7.72;93.33;98276.94;4979532;28;20030;-79
2022/04/07 06:26:23;;;;;;;6.05;3.00;;;;;;;7.77;93.10;98279.84;4991018;28;20045;-83
2022/04/07 06:28:49;;;;;;;6.85;3.00;;;;;;;7.66;93.93;98255.22;5001404;28;20026;-83
2022/04/07 06:31:14;;;;;;;8.75;3.00;;;;;;;7.76;93.78;98265.34;4990119;28;20022;-82
2022/04/07 06:33:40;;;;;;;6.65;3.28;;;;;;;7.70;93.62;98268.59;4990406;28;20375;-83
2022/04/07 06:36:06;;;;;;;6.28;3.35;;;;;;;7.76;93.94;98267.91;5000796;28;20057;-82
2022/04/07 06:38:31;;;;;;;7.18;3.33;;;;;;;7.73;93.92;98268.22;5003785;28;20514;-81
2022/04/07 06:41:00;;;;;;;8.75;3.20;;;;;;;7.68;94.13;98252.47;4992976;28;20030;-82
2022/04/07 06:43:26;;;;;;;9.23;3.30;;;;;;;7.70;94.69;98247.94;5008903;28;20434;-82
2022/04/07 06:45:51;;;;;;;8.05;3.15;;;;;;;7.67;94.66;98245.69;5009312;28;20054;-82
2022/04/07 06:48:17;;;;;;;7.45;2.92;;;;;;;7.64;94.76;98222.84;5009376;28;20025;-84
2022/04/07 06:50:44;;;;;;;7.43;2.83;;;;;;;7.67;94.30;98217.31;5009232;28;20045;-82
2022/04/07 06:53:11;;;;;;;7.55;3.00;;;;;;;7.71;94.90;98214.22;5010753;28;20068;-86
2022/04/07 06:55:38;;;;;;;8.70;2.97;;;;;;;7.75;94.50;98208.75;5011320;28;20064;-79
2022/04/07 06:58:06;;;;;;;8.35;3.30;;;;;;;7.72;94.52;98184.06;4992021;28;20406;-84
2022/04/07 07:00:40;;;;;;;6.78;2.80;;;;;;;7.73;95.00;98186.47;4988430;28;20033;-87
2022/04/07 07:03:05;;;;;;;9.52;3.50;;;;;;;7.72;94.57;98204.72;4992349;28;20065;-83
2022/04/07 07:05:33;;;;;;;8.93;3.15;;;;;;;7.72;95.25;98275.19;4989754;28;20526;-83
2022/04/07 07:08:20;;;;;;;3.65;0.90;;;;;;;7.40;89.85;98303.72;4982084;28;20049;-84
2022/04/07 07:10:50;;;;;;;5.05;1.13;;;;;;;6.68;85.93;98324.28;4992063;28;20045;-80
2022/04/07 07:13:17;;;;;;;6.57;1.25;;;;;;;6.30;85.90;98318.78;4990752;28;20565;-80
2022/04/07 07:15:43;;;;;;;5.40;1.67;;;;;;;6.09;87.77;98297.88;5003396;28;20046;-81
2022/04/07 07:18:09;;;;;;;5.60;1.20;;;;;;;5.99;89.04;98297.22;5008994;28;20038;-82
2022/04/07 07:20:35;;;;;;;5.22;1.40;;;;;;;5.86;89.52;98293.28;4997528;28;20038;-82
2022/04/07 07:23:00;;;;;;;4.13;1.10;;;;;;;5.86;89.61;98298.44;4998729;28;20040;-82
2022/04/07 07:25:27;;;;;;;3.72;0.95;;;;;;;5.74;89.66;98268.84;4990935;28;20029;-82
2022/04/07 07:27:52;;;;;;;6.45;1.50;;;;;;;5.69;89.24;98278.78;4999779;28;20038;-82
2022/04/07 07:30:18;;;;;;;4.65;1.35;;;;;;;5.55;90.23;98280.16;4988888;28;20027;-82
2022/04/07 07:32:47;;;;;;;5.70;1.40;;;;;;;5.55;90.79;98274.22;4972205;28;20025;-82
2022/04/07 07:35:14;;;;;;;6.50;1.80;;;;;;;5.56;90.89;98250.13;4988591;28;20038;-83
2022/04/07 07:37:55;;;;;;;6.45;1.70;;;;;;;5.48;91.85;98232.09;4989005;28;20034;-83
2022/04/07 07:40:23;;;;;;;6.45;1.60;;;;;;;5.47;91.75;98230.50;4988048;28;20410;-81
2022/04/07 07:42:49;;;;;;;7.03;2.20;;;;;;;5.38;91.67;98231.44;4989838;28;20034;-85
2022/04/07 07:45:16;;;;;;;5.35;1.80;;;;;;;5.41;92.49;98233.69;4987351;28;20018;-86
2022/04/07 07:47:41;;;;;;;5.30;1.48;;;;;;;5.40;92.43;98240.59;4988252;28;20026;-85
2022/04/07 07:50:07;;;;;;;7.15;1.60;;;;;;;5.47;91.96;98261.34;4988160;28;20034;-86
2022/04/07 07:52:33;;;;;;;8.35;2.00;;;;;;;5.49;92.44;98290.28;4989229;28;20478;-85
2022/04/07 07:54:58;;;;;;;6.97;1.90;;;;;;;5.41;92.45;98297.97;4989359;28;20056;-85
2022/04/07 07:57:24;;;;;;;4.88;1.90;;;;;;;5.44;93.00;98297.63;4992213;28;20025;-85
2022/04/07 07:59:51;;;;;;;6.07;2.00;;;;;;;5.49;92.23;98300.56;5008354;28;20513;-84
2022/04/07 08:02:17;;;;;;;6.82;2.42;;;;;;;5.42;93.26;98264.38;4994905;28;20030;-83
2022/04/07 08:04:42;;;;;;;7.90;2.35;;;;;;;5.47;93.38;98281.91;4988421;28;20124;-83
2022/04/07 08:07:08;;;;;;;8.70;2.35;;;;;;;5.42;93.49;98261.00;4988274;28;20034;-84
2022/04/07 08:09:33;;;;;;;6.28;2.08;;;;;;;5.44;93.46;98256.50;4987854;28;20026;-83
2022/04/07 08:11:58;;;;;;;5.22;1.70;;;;;;;5.57;93.38;98236.31;4988752;28;20383;-82
2022/04/07 08:14:24;;;;;;;6.63;2.00;;;;;;;5.56;93.10;98220.09;5002546;28;20563;-82
2022/04/07 08:16:49;;;;;;;5.97;1.63;;;;;;;5.54;93.20;98198.06;4987515;28;20053;-82
2022/04/07 08:19:15;;;;;;;8.45;1.90;;;;;;;5.48;93.78;98206.41;4986856;28;20352;-82
2022/04/07 08:21:41;;;;;;;6.07;1.92;;;;;;;5.58;93.63;98217.38;4987116;28;20118;-83
2022/04/07 08:24:06;;;;;;;5.13;1.88;;;;;;;5.61;93.74;98222.16;5006809;28;20446;-82
2022/04/07 08:26:32;;;;;;;6.40;2.00;;;;;;;5.65;93.61;98220.91;4987216;28;20155;-83
2022/04/07 08:28:58;;;;;;;6.65;2.30;;;;;;;5.80;94.47;98227.06;4996330;28;20029;-83
2022/04/07 08:31:23;;;;;;;7.07;2.33;;;;;;;5.80;94.29;98209.03;5007558;28;20046;-83
2022/04/07 08:33:49;;;;;;;5.93;2.25;;;;;;;5.94;94.50;98217.91;4994087;28;20033;-84
2022/04/07 08:36:14;;;;;;;8.15;2.58;;;;;;;5.87;94.79;98201.50;4988065;28;20038;-84
2022/04/07 08:38:39;;;;;;;6.75;2.10;;;;;;;5.98;94.37;98202.97;4987311;28;20030;-85
2022/04/07 08:41:09;;;;;;;7.13;2.85;;;;;;;6.01;94.19;98205.22;4988199;28;20034;-85
2022/04/07 08:43:38;;;;;;;6.13;1.95;;;;;;;5.93;94.69;98185.44;4995449;28;20033;-83
2022/04/07 08:46:06;;;;;;;5.65;1.90;;;;;;;6.06;94.95;98182.38;4988158;28;20096;-82
2022/04/07 08:48:34;;;;;;;9.25;2.20;;;;;;;6.21;94.87;98198.00;4985775;28;20038;-84
2022/04/07 08:51:00;;;;;;;7.45;1.90;;;;;;;6.30;95.34;98208.09;4986662;28;20045;-84
2022/04/07 08:53:25;;;;;;;7.80;2.58;;;;;;;6.48;95.99;98194.25;4986447;28;20475;-85
2022/04/07 08:55:50;;;;;;;7.22;1.83;;;;;;;6.61;96.93;98210.03;4988025;28;20104;-83
2022/04/07 08:58:17;;;;;;;8.85;2.33;;;;;;;6.77;97.03;98199.69;4986175;28;20041;-85
2022/04/07 09:00:43;;;;;;;9.23;2.25;;;;;;;7.00;96.76;98198.97;4989698;28;20029;-84
2022/04/07 09:03:09;;;;;;;7.05;2.00;;;;;;;7.00;96.03;98209.28;4986252;28;20034;-84
2022/04/07 09:05:34;;;;;;;5.78;1.80;;;;;;;6.96;95.43;98197.69;4992675;28;20033;-86
2022/04/07 09:07:59;;;;;;;6.70;1.90;;;;;;;7.04;94.78;98205.38;5007037;28;20108;-85
2022/04/07 09:10:25;;;;;;;7.45;2.00;;;;;;;7.21;95.42;98212.06;5006794;28;20038;-86
2022/04/07 09:12:52;;;;;;;9.55;2.28;;;;;;;7.30;95.76;98203.34;4998122;28;20419;-86
2022/04/07 09:15:18;;;;;;;7.72;2.47;;;;;;;7.49;95.43;98211.63;4999729;28;20030;-87
2022/04/07 09:17:52;;;;;;;6.90;2.00;;;;;;;7.56;95.01;98226.25;4987342;28;20064;-84
2022/04/07 09:20:18;;;;;;;8.02;2.00;;;;;;;7.60;93.52;98213.81;4987389;28;20109;-84
2022/04/07 09:22:43;;;;;;;7.35;1.88;;;;;;;7.71;93.18;98191.00;4970253;28;20034;-85
2022/04/07 09:25:11;;;;;;;8.13;1.80;;;;;;;7.76;91.57;98221.47;4987398;28;20040;-88
2022/04/07 09:27:40;;;;;;;9.63;2.05;;;;;;;7.81;91.41;98221.75;4991098;28;20018;-87
2022/04/07 09:30:08;;;;;;;9.27;1.80;;;;;;;7.83;89.59;98196.59;4987593;28;20030;-86
2022/04/07 09:32:41;;;;;;;6.00;1.60;;;;;;;7.96;88.90;98232.13;4969532;28;20022;-88
2022/04/07 09:35:07;;;;;;;7.03;1.65;;;;;;;7.95;88.50;98210.69;4969086;28;20147;-88
2022/04/07 09:37:34;;;;;;;7.07;1.58;;;;;;;7.98;86.78;98210.34;4987040;28;20156;-82
2022/04/07 09:40:06;;;;;;;6.93;2.08;;;;;;;8.08;87.34;98219.63;4995196;28;20083;-87
2022/04/07 09:42:35;;;;;;;8.23;1.70;;;;;;;8.09;85.57;98226.41;4969172;28;20062;-85
2022/04/07 09:45:01;;;;;;;;;;;;;;;8.19;87.66;98226.97;4995736;28;20029;-86
2022/04/07 09:47:40;;;;;;;8.27;2.15;;;;;;;8.19;85.13;98211.47;5006161;28;19921;-85
2022/04/07 09:50:07;;;;;;;6.93;1.75;;;;;;;8.20;85.44;98228.56;5006758;28;20084;-84
2022/04/07 09:52:33;;;;;;;8.55;1.83;;;;;;;8.30;86.25;98223.97;4968018;28;20030;-82
2022/04/07 09:55:04;;;;;;;7.15;1.50;;;;;;;8.49;84.67;98209.81;4970049;28;20057;-84
2022/04/07 09:57:30;;;;;;;7.25;1.60;;;;;;;8.57;83.97;98214.88;5003494;28;20030;-83
2022/04/07 09:59:57;;;;;;;5.88;1.60;;;;;;;8.72;83.25;98207.97;4988944;28;20069;-84
2022/04/07 10:02:23;;;;;;;6.20;1.35;;;;;;;8.88;81.68;98206.97;5003420;28;20093;-83
2022/04/07 10:04:50;;;;;;;5.28;1.20;;;;;;;9.01;81.61;98196.81;5002601;28;20069;-84
2022/04/07 10:07:16;;;;;;;7.03;1.60;;;;;;;9.18;81.65;98212.13;4996441;28;20088;-83
2022/04/07 10:09:42;;;;;;;6.85;1.55;;;;;;;9.30;80.17;98228.81;4990375;28;20498;-83
2022/04/07 10:12:11;;;;;;;7.35;1.50;;;;;;;9.36;78.42;98224.69;4973326;28;20023;-84
2022/04/07 10:14:37;;;;;;;8.68;1.60;;;;;;;9.49;79.19;98225.63;4972929;28;20077;-85
2022/04/07 10:17:04;;;;;;;7.97;1.70;;;;;;;9.43;77.87;98216.00;4979065;28;20026;-84
2022/04/07 10:19:35;;;;;;;8.68;1.50;;;;;;;9.54;76.49;98228.47;4989906;28;20037;-84
2022/04/07 10:22:26;;;;;;;7.05;1.63;;;;;;;9.63;75.52;98225.78;4959242;28;20046;-85
2022/04/07 10:25:02;;;;;;;6.88;1.48;;;;;;;9.51;73.30;98223.66;4989427;28;20034;-84
2022/04/07 10:27:30;;;;;;;8.90;1.70;;;;;;;9.50;72.82;98258.28;4994308;28;20180;-84
2022/04/07 10:30:05;;;;;;;6.32;1.50;;;;;;;9.41;70.87;98249.03;4989784;28;20113;-84
2022/04/07 10:32:35;;;;;;;10.30;1.98;;;;;;;9.22;69.62;98249.56;4990177;28;20038;-84
2022/04/07 10:35:00;;;;;;;7.72;1.88;;;;;;;9.10;70.73;98272.50;4989793;28;20033;-83
2022/04/07 10:37:46;;;;;;;10.77;2.00;;;;;;;9.10;71.50;98266.53;4972474;28;20034;-80
2022/04/07 10:40:37;;;;;;;11.32;1.90;;;;;;;9.08;70.94;98265.91;4982821;28;20030;-82
2022/04/07 10:43:10;;;;;;;11.02;2.10;;;;;;;9.06;70.93;98276.44;4986416;28;20034;-83
2022/04/07 10:45:43;;;;;;;9.48;1.80;;;;;;;9.07;70.83;98277.22;4958540;28;20054;-84
2022/04/07 10:48:25;;;;;;;10.75;1.92;;;;;;;9.14;72.34;98283.28;4998805;28;20077;-82
2022/04/07 10:50:58;;;;;;;9.82;2.20;;;;;;;9.26;72.63;98287.03;4991229;28;20506;-82
2022/04/07 10:53:37;;;;;;;9.48;2.17;;;;;;;9.36;72.10;98281.59;4990022;28;20035;-82
2022/04/07 10:56:02;;;;;;;9.60;2.28;;;;;;;9.55;69.98;98284.41;4990493;28;20037;-84
2022/04/07 10:58:48;;;;;;;10.10;2.42;;;;;;;9.42;69.84;98281.69;4993862;28;20382;-82
2022/04/07 11:01:32;;;;;;;11.05;2.08;;;;;;;9.33;68.25;98308.59;5009051;28;20034;-82
2022/04/07 11:04:16;;;;;;;12.20;2.33;;;;;;;9.27;69.02;98310.13;5007062;28;20030;-84
2022/04/07 11:07:13;;;;;;;12.60;2.40;;;;;;;9.20;69.94;98298.09;4991325;28;20418;-82
2022/04/07 11:09:54;;;;;;;8.77;2.60;;;;;;;9.08;69.42;98320.22;4996721;28;20026;-82
2022/04/07 11:12:31;;;;;;;12.95;2.42;;;;;;;8.97;69.00;98309.31;4990144;28;20030;-81
2022/04/07 11:15:03;;;;;;;10.52;2.15;;;;;;;8.89;69.23;98322.31;4989246;28;20537;-83
2022/04/07 11:17:46;;;;;;;8.10;1.98;;;;;;;8.82;69.02;98329.16;4972611;28;20495;-83
2022/04/07 11:20:17;;;;;;;10.88;2.55;;;;;;;8.78;68.28;98335.66;4993623;28;20034;-83
2022/04/07 11:22:52;;;;;;;14.93;2.85;;;;;;;8.76;69.85;98337.59;4958250;28;20038;-83
2022/04/07 11:25:36;;;;;;;11.27;2.60;;;;;;;8.71;70.39;98330.38;5009472;28;20072;-84
2022/04/07 11:28:02;;;;;;;12.70;2.47;;;;;;;8.65;69.86;98335.44;5004173;28;20516;-83
2022/04/07 11:30:56;;;;;;;12.55;2.60;;;;;;;8.63;69.95;98347.72;4970237;28;20034;-82
2022/04/07 11:33:25;;;;;;;11.63;2.55;;;;;;;8.66;70.56;98349.94;4969744;28;20035;-82
2022/04/07 11:36:00;;;;;;;13.07;2.88;;;;;;;8.63;69.80;98358.06;4995028;28;20038;-82
2022/04/07 11:38:43;;;;;;;12.90;2.50;;;;;;;8.59;70.00;98351.63;4988395;28;20057;-82
2022/04/07 11:41:10;;;;;;;11.88;3.10;;;;;;;8.60;70.49;98355.81;5005684;28;20450;-83